Search for airport 
image banner adimage banner adimage banner ad
image banner ad

CYHI - Holman

Located in Ulukhaktok, Canada

ICAO - CYHI, IATA - YHI

Data provided by Airmate  

General information

Coordinates: N70°45'46" W117°48'22"
Elevation is 118 feet MSL.
Magnetic variation is 18.2726° East
View others Airports in Northwest Territories

Operational data

Special qualification required
Current time UTC:
Current local time:
Weather
METAR: CYHI 221500Z 09006KT 15SM FEW012 FEW030 FEW130 FEW220 M01/M02 A2962 RMK CU1SC1AC1CI1 CU TR SC TR AC TR CI TR SLP034
View NOTAMs / SUP AIP / TFR affecting this airport [VIEW]
Communications frequencies: [VIEW]

Runways:

RWY identifierQFULength (ft)Width (ft)SurfaceLDA (ft)
0662°430099GRAVE4300
24242°430099GRAVE4300

Airport contact information

Address: Ulukhaktok Canada

Satellite view of CYHI